Time;durP1;ratioP1;P1;durP2;ratioP2;P2;SDS_P1;SDS_P2;PMS_P1;PMS_P2;Temp;Humidity;BMP_temperature;BMP_pressure;BME280_temperature;BME280_humidity;BME280_pressure;Samples;Min_cycle;Max_cycle;Signal;HPM_P1;HPM_P2
2023/07/10 00:00:49;;;;;;;4.50;3.85;;;;;;;-145.63;45.64;38807.19;5062975;28;20041;-68
2023/07/10 00:03:15;;;;;;;5.50;3.50;;;;;;;-145.63;45.88;38836.50;5064820;28;20082;-68
2023/07/10 00:05:40;;;;;;;5.30;3.50;;;;;;;-145.63;45.43;38822.81;5074209;28;20059;-68
2023/07/10 00:08:06;;;;;;;4.13;3.28;;;;;;;-145.63;46.05;38846.28;5076716;28;20206;-68
2023/07/10 00:10:32;;;;;;;4.45;3.40;;;;;;;-145.63;46.27;38869.75;5063679;28;20043;-69
2023/07/10 00:12:57;;;;;;;4.93;3.40;;;;;;;-145.63;45.62;38820.88;5083239;28;20044;-69
2023/07/10 00:15:23;;;;;;;4.28;3.63;;;;;;;-145.63;45.80;38834.56;5069542;28;20029;-70
2023/07/10 00:17:51;;;;;;;4.80;3.28;;;;;;;-145.63;45.65;38801.31;5077822;28;20033;-69
2023/07/10 00:20:23;;;;;;;5.32;3.53;;;;;;;-145.63;45.68;38848.25;5078665;28;20029;-69
2023/07/10 00:22:49;;;;;;;4.32;3.58;;;;;;;-145.63;45.39;38828.69;5069283;28;20035;-69
2023/07/10 00:25:15;;;;;;;5.40;3.30;;;;;;;-145.63;46.31;38836.50;5085904;28;20034;-69
2023/07/10 00:27:43;;;;;;;5.55;3.70;;;;;;;-145.63;46.77;38842.38;5066016;28;20032;-69
2023/07/10 00:30:19;;;;;;;4.40;3.35;;;;;;;-145.63;46.65;38859.97;5065615;28;20084;-69
2023/07/10 00:32:46;;;;;;;6.00;3.13;;;;;;;-145.63;46.14;38842.38;5076921;28;20045;-68
2023/07/10 00:35:16;;;;;;;6.03;3.30;;;;;;;-145.63;46.02;38852.16;5079759;28;20024;-68
2023/07/10 00:38:03;;;;;;;8.45;3.63;;;;;;;-145.63;45.93;38824.78;5067867;28;20043;-68
2023/07/10 00:40:32;;;;;;;4.82;3.28;;;;;;;-145.63;46.26;38840.44;5080281;28;20025;-68
2023/07/10 00:43:04;;;;;;;3.60;3.30;;;;;;;-145.63;46.34;38840.44;5085553;28;20069;-67
2023/07/10 00:45:30;;;;;;;4.18;3.35;;;;;;;-145.63;46.38;38846.28;5068404;28;20056;-67
2023/07/10 00:48:30;;;;;;;7.13;3.38;;;;;;;-145.63;46.40;38795.44;5077450;28;20313;-69
2023/07/10 00:51:01;;;;;;;6.15;3.05;;;;;;;-145.63;46.81;38818.91;5073240;28;20269;-69
2023/07/10 00:53:35;;;;;;;7.97;3.15;;;;;;;-145.63;46.77;38914.72;5073416;28;20032;-68
2023/07/10 00:56:02;;;;;;;3.35;2.97;;;;;;;-145.63;46.52;38891.28;5080877;28;20096;-69
2023/07/10 00:58:41;;;;;;;6.82;3.10;;;;;;;-145.63;46.61;38854.13;5065450;28;20064;-69
2023/07/10 01:01:22;;;;;;;4.57;3.22;;;;;;;-145.63;46.83;38116.94;5065981;28;20088;-68
2023/07/10 01:03:51;;;;;;;3.42;2.70;;;;;;;-145.63;46.65;38922.56;5065260;28;20033;-68
2023/07/10 01:06:30;;;;;;;6.93;3.15;;;;;;;-145.63;46.79;38834.56;5079907;28;20036;-67
2023/07/10 01:09:07;;;;;;;3.58;2.58;;;;;;;-145.63;46.76;38869.75;5073017;28;20053;-68
2023/07/10 01:11:36;;;;;;;7.40;3.08;;;;;;;-145.63;46.70;38938.19;5064839;28;20025;-69
2023/07/10 01:14:05;;;;;;;3.90;2.83;;;;;;;-145.63;47.40;38859.97;5065190;28;20029;-70
2023/07/10 01:16:31;;;;;;;5.30;2.95;;;;;;;-145.63;47.51;38871.72;5063588;28;20324;-70
2023/07/10 01:18:58;;;;;;;7.35;2.80;;;;;;;-145.63;47.05;38852.16;5064789;28;20079;-69
2023/07/10 01:21:26;;;;;;;6.55;3.05;;;;;;;-145.63;47.24;38891.28;5080230;28;20084;-70
2023/07/10 01:23:53;;;;;;;8.40;2.95;;;;;;;-145.63;47.17;38883.44;5073108;28;20029;-69
2023/07/10 01:26:20;;;;;;;2.92;2.72;;;;;;;-145.63;46.98;38881.50;5070715;28;20024;-69
2023/07/10 01:28:46;;;;;;;4.85;3.35;;;;;;;-145.63;47.52;38893.22;5082430;28;20296;-69
2023/07/10 01:31:15;;;;;;;3.55;2.72;;;;;;;-145.63;47.73;38887.34;5064840;28;20025;-69
2023/07/10 01:33:46;;;;;;;3.60;2.40;;;;;;;-145.63;47.75;38932.34;5082362;28;20032;-70
2023/07/10 01:36:15;;;;;;;4.28;2.78;;;;;;;-145.63;47.33;38899.09;5069330;28;20021;-69
2023/07/10 01:38:48;;;;;;;5.38;3.15;;;;;;;-145.63;47.24;38899.09;5074209;28;20032;-70
2023/07/10 01:41:34;;;;;;;4.88;2.85;;;;;;;-145.63;48.08;38658.56;5078415;28;20368;-68
2023/07/10 01:44:00;;;;;;;3.47;2.80;;;;;;;-145.63;47.99;38889.31;5079270;28;20209;-69
2023/07/10 01:46:27;;;;;;;3.45;2.90;;;;;;;-145.63;48.03;38930.38;5064785;28;20036;-70
2023/07/10 01:48:57;;;;;;;5.32;2.95;;;;;;;-145.63;47.78;38908.88;5064558;28;20098;-70
2023/07/10 01:51:24;;;;;;;4.60;2.65;;;;;;;-145.63;47.43;38928.44;5064444;28;20127;-71
2023/07/10 01:53:50;;;;;;;4.20;2.70;;;;;;;-145.63;47.33;38891.28;5073939;28;20043;-70
2023/07/10 01:56:17;;;;;;;4.43;2.78;;;;;;;-145.63;48.14;38934.28;5078428;28;20361;-70
2023/07/10 01:58:43;;;;;;;4.70;3.30;;;;;;;-145.63;47.64;38922.56;5065772;28;20048;-69
2023/07/10 02:01:09;;;;;;;7.80;3.25;;;;;;;-145.63;48.12;38916.69;5084089;28;20021;-69
2023/07/10 02:03:35;;;;;;;6.22;3.28;;;;;;;-145.63;47.87;38928.44;5067191;28;20021;-68
2023/07/10 02:06:01;;;;;;;4.05;3.13;;;;;;;-145.63;47.59;38942.13;5076418;28;20028;-70
2023/07/10 02:08:27;;;;;;;4.32;2.90;;;;;;;-145.63;47.92;38904.97;5076216;28;20033;-69
2023/07/10 02:10:53;;;;;;;7.53;2.67;;;;;;;-145.63;47.72;38928.44;5066746;28;20058;-69
2023/07/10 02:13:18;;;;;;;7.15;3.20;;;;;;;-145.63;47.67;38916.69;5082685;28;20024;-71
2023/07/10 02:15:44;;;;;;;3.92;2.67;;;;;;;-145.63;47.58;38903.00;5066044;28;20067;-70
2023/07/10 02:18:10;;;;;;;3.08;2.63;;;;;;;-145.63;48.16;38961.66;5064099;28;20036;-70
2023/07/10 02:20:36;;;;;;;6.53;3.13;;;;;;;-145.63;48.10;38914.72;5078652;28;20022;-70
2023/07/10 02:23:02;;;;;;;2.72;2.53;;;;;;;-145.63;47.83;38877.56;5063781;28;20025;-69
2023/07/10 02:25:27;;;;;;;3.35;2.50;;;;;;;-145.63;47.65;38926.47;5063571;28;20303;-70
2023/07/10 02:27:53;;;;;;;7.07;2.80;;;;;;;-145.63;47.17;38918.66;5082958;28;20337;-70
2023/07/10 02:30:18;;;;;;;4.13;2.30;;;;;;;-145.63;47.56;38934.28;5068896;28;20024;-70
2023/07/10 02:32:44;;;;;;;2.30;2.05;;;;;;;-145.63;47.49;38901.03;5063383;28;20310;-70
2023/07/10 02:35:10;;;;;;;4.50;2.20;;;;;;;-145.63;47.40;38926.47;5063391;28;20070;-71
2023/07/10 02:37:36;;;;;;;8.75;2.58;;;;;;;-145.63;47.64;38928.44;5063376;28;20234;-68
2023/07/10 02:40:03;;;;;;;3.25;2.13;;;;;;;-145.63;47.78;38914.72;5079384;28;20036;-69
2023/07/10 02:42:30;;;;;;;4.10;2.45;;;;;;;-145.63;47.38;38914.72;5063322;28;20029;-70
2023/07/10 02:44:55;;;;;;;5.63;2.35;;;;;;;-145.63;47.25;38926.47;5074441;28;20078;-69
2023/07/10 02:47:21;;;;;;;3.33;2.13;;;;;;;-145.63;47.17;38908.88;5077262;28;20303;-68
2023/07/10 02:49:46;;;;;;;3.63;2.20;;;;;;;-145.63;47.08;38906.91;5064967;28;20029;-69
2023/07/10 02:52:12;;;;;;;2.70;1.60;;;;;;;-145.63;47.64;38918.66;5083255;28;20028;-68
2023/07/10 02:54:38;;;;;;;2.30;1.75;;;;;;;-145.63;47.74;38910.81;5066533;28;20029;-68
2023/07/10 02:57:03;;;;;;;2.58;1.65;;;;;;;-145.63;47.24;38922.56;5075123;28;20205;-69
2023/07/10 02:59:29;;;;;;;3.85;1.50;;;;;;;-145.63;47.31;38869.75;5075790;28;20044;-68
2023/07/10 03:01:55;;;;;;;5.75;1.58;;;;;;;-145.63;47.09;38891.28;5065750;28;20040;-69
2023/07/10 03:04:21;;;;;;;3.58;1.50;;;;;;;-145.63;46.99;38903.00;5082859;28;20340;-69
2023/07/10 03:06:48;;;;;;;1.58;1.35;;;;;;;-145.63;46.82;38885.41;5065104;28;20033;-69
2023/07/10 03:09:15;;;;;;;2.17;1.50;;;;;;;-145.63;47.15;38967.53;5076190;28;20075;-68
2023/07/10 03:11:41;;;;;;;4.78;1.60;;;;;;;-145.63;47.34;38861.94;5074208;28;20056;-69
2023/07/10 03:14:07;;;;;;;1.27;1.17;;;;;;;-145.63;47.15;38899.09;5062808;28;20059;-67
2023/07/10 03:16:33;;;;;;;1.67;1.17;;;;;;;-145.63;47.19;38920.59;5061959;28;20100;-69
2023/07/10 03:18:58;;;;;;;3.95;1.27;;;;;;;-145.63;46.63;38836.50;5082655;28;20028;-68
2023/07/10 03:21:25;;;;;;;1.83;1.38;;;;;;;-145.63;46.53;38875.63;5068418;28;20036;-69
2023/07/10 03:23:50;;;;;;;4.85;1.52;;;;;;;-145.63;46.57;38867.81;5073534;28;20032;-67
2023/07/10 03:26:16;;;;;;;1.65;1.17;;;;;;;-145.63;46.41;38824.78;5077815;28;20025;-70
2023/07/10 03:28:42;;;;;;;2.35;1.33;;;;;;;-145.63;46.59;38859.97;5074498;28;20146;-67
2023/07/10 03:31:08;;;;;;;2.15;1.20;;;;;;;-145.63;46.46;38828.69;5082934;28;20039;-71
2023/07/10 03:33:34;;;;;;;3.03;1.27;;;;;;;-145.63;46.19;38771.97;5079532;28;20024;-70
2023/07/10 03:36:02;;;;;;;1.27;1.00;;;;;;;-145.63;45.85;38787.63;5069311;28;20036;-69
2023/07/10 03:38:28;;;;;;;3.88;1.40;;;;;;;-145.63;45.36;38768.06;5069557;28;20035;-70
2023/07/10 03:40:56;;;;;;;2.25;1.30;;;;;;;-145.63;44.87;38752.44;5075835;28;20029;-70
2023/07/10 03:43:22;;;;;;;2.20;1.25;;;;;;;-145.63;44.80;38791.53;5082936;28;20032;-70
2023/07/10 03:45:48;;;;;;;2.75;1.20;;;;;;;-145.63;44.93;38781.75;5065659;28;20021;-70
2023/07/10 03:48:14;;;;;;;2.70;1.33;;;;;;;-145.63;44.79;38869.75;5064637;28;20035;-69
2023/07/10 03:50:40;;;;;;;1.60;1.40;;;;;;;-145.63;44.86;38801.31;5076269;28;20036;-69
2023/07/10 03:53:06;;;;;;;4.45;1.48;;;;;;;-145.63;44.86;38820.88;5083661;28;20028;-70
2023/07/10 03:55:31;;;;;;;2.65;1.30;;;;;;;-145.63;45.07;38824.78;5067525;28;20033;-70
2023/07/10 03:57:57;;;;;;;1.92;1.33;;;;;;;-145.63;44.92;38797.41;5085920;28;20028;-70
2023/07/10 04:00:23;;;;;;;3.08;1.30;;;;;;;-145.63;44.64;38865.84;5072024;28;20032;-71
2023/07/10 04:02:48;;;;;;;4.05;1.27;;;;;;;-145.63;45.11;38813.03;5075904;28;20036;-69
2023/07/10 04:05:14;;;;;;;6.18;1.60;;;;;;;-145.63;44.96;38820.88;5081961;28;20056;-71
2023/07/10 04:07:40;;;;;;;3.42;1.50;;;;;;;-145.63;44.70;38822.81;5066528;28;20029;-69
2023/07/10 04:10:06;;;;;;;1.67;1.25;;;;;;;-145.63;44.54;38799.34;5066196;28;20051;-69
2023/07/10 04:12:32;;;;;;;1.77;1.50;;;;;;;-145.63;44.82;38848.25;5066541;28;20035;-68
2023/07/10 04:14:58;;;;;;;3.65;1.40;;;;;;;-145.63;44.62;38838.47;5065435;28;20128;-68
2023/07/10 04:17:24;;;;;;;1.45;1.23;;;;;;;-145.63;44.42;38797.41;5072056;28;20040;-69
2023/07/10 04:19:50;;;;;;;5.65;1.80;;;;;;;-145.63;44.48;38807.19;5084985;28;20035;-68
2023/07/10 04:22:16;;;;;;;17.90;2.40;;;;;;;-145.63;44.81;38820.88;5065861;28;20049;-69
2023/07/10 04:24:42;;;;;;;1.90;1.60;;;;;;;-145.63;44.43;38805.22;5082480;28;20084;-69
2023/07/10 04:27:08;;;;;;;4.38;1.33;;;;;;;-145.63;44.38;38805.22;5074284;28;20031;-69
2023/07/10 04:29:34;;;;;;;3.65;1.75;;;;;;;-145.63;44.29;38815.00;5073101;28;20258;-67
2023/07/10 04:32:00;;;;;;;4.15;1.63;;;;;;;-145.63;43.95;38791.53;5082121;28;20024;-68
2023/07/10 04:34:26;;;;;;;3.72;1.30;;;;;;;-145.63;44.18;38848.25;5065919;28;20360;-67
2023/07/10 04:36:51;;;;;;;1.83;1.35;;;;;;;-145.63;43.29;38813.03;5064525;28;20048;-68
2023/07/10 04:39:17;;;;;;;5.32;1.80;;;;;;;-145.63;43.01;38795.44;5078549;28;20032;-68
2023/07/10 04:41:44;;;;;;;1.50;1.40;;;;;;;-145.63;43.07;38801.31;5077836;28;20020;-67
2023/07/10 04:44:10;;;;;;;3.13;1.83;;;;;;;-145.63;43.05;38754.38;5082018;28;20158;-67
2023/07/10 04:46:36;;;;;;;3.53;1.80;;;;;;;-145.63;42.52;38777.84;5064444;28;20033;-67
2023/07/10 04:49:02;;;;;;;3.20;2.00;;;;;;;-145.63;42.35;38750.47;5084805;28;20046;-68
2023/07/10 04:51:28;;;;;;;2.55;2.35;;;;;;;-145.63;42.69;38752.44;5070959;28;20314;-68
2023/07/10 04:53:54;;;;;;;2.42;2.22;;;;;;;-145.63;42.02;38768.06;5075200;28;20034;-69
2023/07/10 04:56:19;;;;;;;2.80;2.45;;;;;;;-145.63;41.94;38777.84;5080628;28;20070;-70
2023/07/10 04:58:54;;;;;;;5.47;2.45;;;;;;;-145.63;41.74;38779.81;5065443;28;20040;-70
2023/07/10 05:01:23;;;;;;;5.20;2.78;;;;;;;-145.63;42.26;38746.56;5085322;28;20030;-70
2023/07/10 05:03:49;;;;;;;5.38;3.22;;;;;;;-145.63;41.95;38771.97;5067929;28;20048;-69
2023/07/10 05:06:16;;;;;;;4.32;2.45;;;;;;;-145.63;41.60;38723.09;5076450;28;20028;-68
2023/07/10 05:08:41;;;;;;;4.80;2.70;;;;;;;-145.63;40.84;38715.28;5077373;28;20033;-69
2023/07/10 05:11:07;;;;;;;2.88;2.60;;;;;;;-145.63;41.04;38652.69;5066892;28;20313;-69
2023/07/10 05:13:33;;;;;;;7.13;3.83;;;;;;;-145.63;41.29;38736.78;5084161;28;20170;-69
2023/07/10 05:15:59;;;;;;;5.05;3.22;;;;;;;-145.63;41.04;38703.53;5066662;28;20020;-72
2023/07/10 05:18:26;;;;;;;4.18;2.97;;;;;;;-145.63;39.95;38678.13;5078734;28;20032;-69
2023/07/10 05:20:52;;;;;;;3.55;2.85;;;;;;;-145.63;39.50;38668.34;5076091;28;20047;-70
2023/07/10 05:23:18;;;;;;;4.20;3.00;;;;;;;-145.63;39.64;38672.25;5069193;28;20040;-72
2023/07/10 05:26:01;;;;;;;6.22;3.38;;;;;;;-145.63;39.43;38644.88;5086799;28;20020;-70
2023/07/10 05:28:26;;;;;;;4.25;3.08;;;;;;;-145.63;39.60;38652.69;5046312;28;20349;-70
2023/07/10 05:30:53;;;;;;;4.63;3.47;;;;;;;-145.63;39.89;38668.34;5080597;28;20058;-70
2023/07/10 05:33:19;;;;;;;6.65;3.17;;;;;;;-145.63;39.26;38609.69;5071298;28;20261;-70
2023/07/10 05:35:56;;;;;;;4.78;3.20;;;;;;;-145.63;39.04;38625.31;5065162;28;20147;-69
2023/07/10 05:38:24;;;;;;;5.38;3.40;;;;;;;-145.63;39.45;38640.97;5064980;28;20025;-70
2023/07/10 05:40:50;;;;;;;4.05;3.28;;;;;;;-145.63;39.19;38637.06;5064878;28;20027;-71
2023/07/10 05:43:16;;;;;;;4.43;3.83;;;;;;;-145.63;39.12;38633.16;5064956;28;20032;-72
2023/07/10 05:45:41;;;;;;;4.80;3.83;;;;;;;-145.63;39.60;38635.09;5079384;28;20054;-70
2023/07/10 05:48:09;;;;;;;4.93;3.58;;;;;;;-145.63;40.01;38637.06;5073982;28;20032;-70
2023/07/10 05:50:34;;;;;;;6.40;3.83;;;;;;;-145.63;39.61;38695.72;5070101;28;20070;-70
2023/07/10 05:53:00;;;;;;;3.92;3.33;;;;;;;-145.63;39.46;38664.44;5083256;28;20032;-70
2023/07/10 05:55:27;;;;;;;4.43;3.45;;;;;;;-145.63;39.24;38672.25;5064456;28;20032;-69
2023/07/10 05:57:53;;;;;;;4.63;3.38;;;;;;;-145.63;39.03;38660.53;5081695;28;20100;-70
2023/07/10 06:00:19;;;;;;;5.90;3.65;;;;;;;-145.63;38.82;38435.66;5071985;28;20305;-70
2023/07/10 06:02:45;;;;;;;4.60;3.40;;;;;;;-145.63;38.44;38619.47;5070615;28;20024;-70
2023/07/10 06:05:10;;;;;;;5.38;3.20;;;;;;;-145.63;38.28;38637.06;5081337;28;20067;-71
2023/07/10 06:07:36;;;;;;;3.45;2.55;;;;;;;-145.63;37.81;38660.53;5064317;28;20029;-69
2023/07/10 06:10:02;;;;;;;4.63;3.60;;;;;;;-145.63;38.14;38627.28;5082607;28;20041;-70
2023/07/10 06:12:30;;;;;;;5.03;3.60;;;;;;;-145.63;37.85;38678.13;5069620;28;20074;-69
2023/07/10 06:14:55;;;;;;;11.05;3.78;;;;;;;-145.63;38.30;38637.06;5064090;28;20225;-70
2023/07/10 06:17:21;;;;;;;5.38;3.20;;;;;;;-145.63;38.19;38588.16;5068279;28;20035;-70
2023/07/10 06:19:46;;;;;;;6.10;3.10;;;;;;;-145.63;38.29;38617.50;5084044;28;20472;-71
2023/07/10 06:22:12;;;;;;;3.60;3.10;;;;;;;-145.63;37.83;38590.13;5064111;28;20017;-70
2023/07/10 06:24:38;;;;;;;4.20;3.55;;;;;;;-145.63;37.84;38590.13;5079022;28;20225;-69
2023/07/10 06:27:05;;;;;;;8.23;2.92;;;;;;;-145.63;38.24;38603.81;5073738;28;20025;-69
2023/07/10 06:29:33;;;;;;;5.75;3.05;;;;;;;-145.63;37.09;38601.84;5069332;28;20034;-70
2023/07/10 06:31:58;;;;;;;3.85;2.65;;;;;;;-145.63;36.96;38617.50;5082771;28;20016;-69
2023/07/10 06:34:24;;;;;;;4.28;2.70;;;;;;;-145.63;36.74;38625.31;5063662;28;20770;-71
2023/07/10 06:36:50;;;;;;;6.88;2.85;;;;;;;-145.63;36.99;38566.66;5063954;28;20029;-71
2023/07/10 06:39:15;;;;;;;4.35;2.70;;;;;;;-145.63;37.06;38572.53;5075503;28;20032;-70
2023/07/10 06:41:41;;;;;;;5.28;2.78;;;;;;;-145.63;37.10;38570.56;5074755;28;20324;-71
2023/07/10 06:44:07;;;;;;;4.72;2.97;;;;;;;-145.63;36.80;38564.72;5081749;28;20047;-71
2023/07/10 06:46:32;;;;;;;4.85;2.83;;;;;;;-145.63;36.62;38564.72;5062890;28;20028;-70
2023/07/10 06:48:58;;;;;;;2.92;2.63;;;;;;;-145.63;36.69;38617.50;5082107;28;20048;-72
2023/07/10 06:51:23;;;;;;;4.38;3.08;;;;;;;-145.63;37.12;38613.59;5070197;28;20321;-71
2023/07/10 06:53:49;;;;;;;6.50;3.00;;;;;;;-145.63;37.01;38588.16;5063800;28;20032;-70
2023/07/10 06:56:15;;;;;;;3.63;3.22;;;;;;;-145.63;36.61;38556.88;5062696;28;20383;-71
2023/07/10 06:58:40;;;;;;;4.32;2.80;;;;;;;-145.63;36.84;38527.56;5068115;28;20328;-71
2023/07/10 07:01:06;;;;;;;5.15;2.70;;;;;;;-145.63;35.40;38554.94;5073050;28;20020;-72
2023/07/10 07:03:32;;;;;;;6.18;2.47;;;;;;;-145.63;35.99;38627.28;5069499;28;20021;-71
2023/07/10 07:05:58;;;;;;;4.78;2.88;;;;;;;-145.63;36.36;38582.31;5071775;28;20032;-70
2023/07/10 07:08:24;;;;;;;5.18;2.78;;;;;;;-145.63;36.26;38580.34;5076830;28;20045;-71
2023/07/10 07:10:52;;;;;;;3.30;2.83;;;;;;;-145.63;36.49;38564.72;5057368;28;20025;-71
2023/07/10 07:13:18;;;;;;;8.32;2.97;;;;;;;-145.63;36.47;38496.28;5060768;28;20029;-69
2023/07/10 07:15:51;;;;;;;5.07;3.20;;;;;;;-145.63;36.53;38502.13;5065457;28;20040;-70
2023/07/10 07:18:17;;;;;;;5.10;2.97;;;;;;;-145.63;36.30;38535.38;5059426;28;20029;-69
2023/07/10 07:20:43;;;;;;;4.95;3.00;;;;;;;-145.63;36.42;38472.81;5056107;28;20111;-70
2023/07/10 07:23:09;;;;;;;5.13;3.20;;;;;;;-145.63;36.06;38523.66;5058526;28;20377;-70
2023/07/10 07:25:34;;;;;;;4.20;2.63;;;;;;;-145.63;35.93;38484.53;5053446;28;20044;-69
2023/07/10 07:28:03;;;;;;;3.78;2.88;;;;;;;-145.63;35.91;38461.06;5064599;28;20332;-69
2023/07/10 07:30:29;;;;;;;5.47;3.08;;;;;;;-145.63;35.44;38449.34;5068599;28;20075;-71
2023/07/10 07:32:57;;;;;;;6.55;2.55;;;;;;;-145.63;35.42;38453.25;5071450;28;20089;-70
2023/07/10 07:35:22;;;;;;;4.65;2.97;;;;;;;-145.63;35.01;38502.13;5066464;28;20066;-70
2023/07/10 07:37:48;;;;;;;6.93;3.25;;;;;;;-145.63;35.59;38519.72;5067459;28;20036;-70
2023/07/10 07:40:16;;;;;;;4.38;3.00;;;;;;;-145.63;35.85;38523.66;5082177;28;20025;-69
2023/07/10 07:42:46;;;;;;;3.40;2.80;;;;;;;-145.63;35.42;38552.97;5082405;28;20024;-72
2023/07/10 07:45:12;;;;;;;4.85;2.78;;;;;;;-145.63;35.31;38523.66;5076865;28;20029;-71
2023/07/10 07:47:40;;;;;;;5.95;3.00;;;;;;;-145.63;34.89;38529.50;5072390;28;20025;-72
2023/07/10 07:50:07;;;;;;;4.97;2.92;;;;;;;-145.63;35.71;38558.84;5085339;28;20091;-71
2023/07/10 07:52:33;;;;;;;5.85;3.30;;;;;;;-145.63;35.17;38545.16;5077038;28;20380;-71
2023/07/10 07:54:59;;;;;;;5.85;3.20;;;;;;;-145.63;35.81;38537.34;5066858;28;20107;-68
2023/07/10 07:57:25;;;;;;;5.28;2.83;;;;;;;-145.63;35.08;38509.97;5065311;28;20029;-69
2023/07/10 07:59:51;;;;;;;6.57;3.83;;;;;;;-145.63;35.29;38527.56;5074113;28;20052;-69
2023/07/10 08:02:17;;;;;;;9.05;3.63;;;;;;;-145.63;35.25;38556.88;5083191;28;20244;-68
2023/07/10 08:04:43;;;;;;;8.43;3.47;;;;;;;-145.63;35.66;38594.03;5066098;28;20056;-72
2023/07/10 08:07:09;;;;;;;8.48;3.53;;;;;;;-145.63;36.28;38551.03;5084372;28;20306;-70
2023/07/10 08:09:34;;;;;;;6.18;3.30;;;;;;;-145.63;36.05;38519.72;5072647;28;20225;-70
2023/07/10 08:12:00;;;;;;;6.05;3.38;;;;;;;-145.63;35.79;37919.47;5074865;28;20032;-70
2023/07/10 08:14:26;;;;;;;6.68;3.70;;;;;;;-145.63;35.57;38590.13;5082194;28;20036;-70
2023/07/10 08:16:52;;;;;;;7.63;3.00;;;;;;;-145.63;35.96;38513.88;5065921;28;20402;-71
2023/07/10 08:19:18;;;;;;;6.32;3.78;;;;;;;-145.63;36.15;38552.97;5066119;28;20029;-70
2023/07/10 08:21:44;;;;;;;4.50;3.20;;;;;;;-145.63;36.13;38543.19;5080563;28;20020;-69
2023/07/10 08:24:09;;;;;;;4.22;3.45;;;;;;;-145.63;36.38;38609.69;5075981;28;20326;-71
2023/07/10 08:26:35;;;;;;;6.15;3.70;;;;;;;-145.63;36.50;38564.72;5070882;28;20033;-69
2023/07/10 08:29:31;;;;;;;3.58;3.28;;;;;;;-145.63;36.43;38515.81;5085518;28;20039;-70
2023/07/10 08:31:59;;;;;;;6.60;3.65;;;;;;;-145.63;36.41;38535.38;5064939;28;20029;-70
2023/07/10 08:34:27;;;;;;;3.90;3.50;;;;;;;-145.63;35.99;38588.16;5084781;28;20248;-70
2023/07/10 08:36:54;;;;;;;3.58;3.22;;;;;;;-145.63;35.78;38509.97;5078969;28;20021;-70
2023/07/10 08:39:22;;;;;;;4.72;3.50;;;;;;;-145.63;35.51;38535.38;5077755;28;20066;-70
2023/07/10 08:41:54;;;;;;;4.47;3.70;;;;;;;-145.63;35.21;38525.59;5075293;28;20048;-70
2023/07/10 08:44:30;;;;;;;;;;;;;;;-145.63;35.62;38554.94;5074781;28;20025;-72
2023/07/10 08:46:57;;;;;;;3.95;3.40;;;;;;;-145.63;35.77;38455.22;5065554;28;19911;-72
2023/07/10 08:49:38;;;;;;;4.57;3.63;;;;;;;-145.63;35.32;38535.38;5083908;28;20024;-71
2023/07/10 08:52:21;;;;;;;4.72;4.00;;;;;;;-145.63;35.61;38474.75;5067287;28;20021;-70
2023/07/10 08:54:48;;;;;;;3.75;3.38;;;;;;;-145.63;35.48;38523.66;5080145;28;20035;-70
2023/07/10 08:57:35;;;;;;;5.70;3.70;;;;;;;-145.63;35.16;38564.72;5075288;28;20029;-68
2023/07/10 09:00:10;;;;;;;4.53;3.63;;;;;;;-145.63;35.91;38574.47;5073431;28;20028;-70
2023/07/10 09:02:45;;;;;;;3.53;3.22;;;;;;;-145.63;35.42;38488.44;5080565;28;20328;-69
2023/07/10 09:05:32;;;;;;;4.95;3.63;;;;;;;-145.63;35.63;38562.75;5065653;28;20047;-70
2023/07/10 09:08:03;;;;;;;5.30;3.95;;;;;;;-145.63;36.00;38578.41;5065084;28;20033;-72
2023/07/10 09:10:43;;;;;;;;;;;;;;;-145.63;35.14;38506.03;5046136;28;20361;-70
2023/07/10 09:13:16;;;;;;;6.00;3.78;;;;;;;-145.63;35.38;38449.34;5080232;28;19940;-71
2023/07/10 09:15:51;;;;;;;6.03;3.75;;;;;;;-145.63;35.63;38492.34;5071268;28;20028;-71
2023/07/10 09:18:21;;;;;;;4.20;3.80;;;;;;;-145.63;35.15;38433.69;5076201;28;20028;-72
2023/07/10 09:20:52;;;;;;;6.97;3.80;;;;;;;-145.63;35.14;38011.38;5080566;28;20032;-71
2023/07/10 09:23:26;;;;;;;4.90;3.70;;;;;;;-145.63;34.78;38445.44;5067183;28;20051;-72
2023/07/10 09:25:57;;;;;;;8.70;4.03;;;;;;;-145.63;35.19;38488.44;5084776;28;20036;-71
2023/07/10 09:28:24;;;;;;;5.50;4.00;;;;;;;-145.63;34.52;38492.34;5065137;28;20197;-71
2023/07/10 09:31:03;;;;;;;3.70;3.40;;;;;;;-145.63;34.45;38451.28;5081240;28;20048;-71
2023/07/10 09:33:44;;;;;;;6.88;3.60;;;;;;;-145.63;35.18;38433.69;5051687;28;20333;-70
2023/07/10 09:36:19;;;;;;;4.00;3.60;;;;;;;-145.63;35.37;38445.44;5042447;28;20108;-71
2023/07/10 09:38:47;;;;;;;5.80;3.90;;;;;;;-145.63;35.06;38423.91;5048309;28;20106;-71
2023/07/10 09:41:20;;;;;;;4.72;4.28;;;;;;;-145.63;34.99;38429.78;5051773;28;20032;-70
2023/07/10 09:44:19;;;;;;;10.73;4.10;;;;;;;-145.63;35.14;38468.91;5062632;28;20159;-71
2023/07/10 09:46:46;;;;;;;4.60;3.83;;;;;;;-145.63;35.80;38504.09;5022175;28;20314;-71
2023/07/10 09:49:22;;;;;;;4.53;4.13;;;;;;;-145.63;36.15;38508.00;5058260;28;20041;-74
2023/07/10 09:52:15;;;;;;;6.70;4.65;;;;;;;-145.63;35.85;38511.91;5011544;28;20323;-77
2023/07/10 09:54:41;;;;;;;7.45;4.10;;;;;;;-145.63;36.13;38394.59;5020821;28;20219;-76
2023/07/10 09:57:17;;;;;;;6.03;4.30;;;;;;;-145.63;36.17;38459.13;5040905;28;20036;-74
2023/07/10 09:59:49;;;;;;;6.53;4.50;;;;;;;-145.63;36.34;37604.72;5047485;28;20151;-75
2023/07/10 10:02:18;;;;;;;5.60;4.70;;;;;;;-145.63;36.65;38451.28;5060505;28;20035;-74
2023/07/10 10:04:49;;;;;;;5.88;3.90;;;;;;;-145.63;36.51;38474.75;5047424;28;20065;-75
2023/07/10 10:07:20;;;;;;;4.95;4.20;;;;;;;-145.63;36.06;38486.50;5077979;28;20044;-76
2023/07/10 10:09:45;;;;;;;5.07;4.68;;;;;;;-145.63;36.11;38480.63;5072991;28;20217;-75
2023/07/10 10:12:33;;;;;;;5.47;4.43;;;;;;;-145.63;36.17;38535.38;5075769;28;20024;-75
2023/07/10 10:15:14;;;;;;;5.30;4.68;;;;;;;-145.63;36.38;38484.53;5063964;28;20096;-73
2023/07/10 10:17:44;;;;;;;5.22;4.47;;;;;;;-145.63;36.08;38525.59;5075294;28;20035;-75
2023/07/10 10:20:24;;;;;;;4.55;4.15;;;;;;;-145.63;36.28;38511.91;5067357;28;20147;-79
2023/07/10 10:22:50;;;;;;;4.30;3.95;;;;;;;-145.63;36.70;38619.47;5083558;28;20024;-75
2023/07/10 10:25:20;;;;;;;7.40;4.63;;;;;;;-145.63;36.88;38142.38;5066264;28;20032;-74
2023/07/10 10:28:09;;;;;;;5.45;4.85;;;;;;;-145.63;37.12;38633.16;5079557;28;20043;-74
2023/07/10 10:30:38;;;;;;;5.97;4.68;;;;;;;-145.63;36.91;38574.47;5075823;28;20040;-75
2023/07/10 10:33:38;;;;;;;4.95;4.50;;;;;;;-145.63;36.84;38596.00;5076094;28;20060;-76
2023/07/10 10:36:19;;;;;;;5.30;4.45;;;;;;;-145.63;37.65;38597.94;5062648;28;20071;-75
2023/07/10 10:38:53;;;;;;;5.35;4.85;;;;;;;-145.63;37.13;38582.31;5068695;28;20028;-75
2023/07/10 10:41:44;;;;;;;6.32;4.63;;;;;;;-145.63;37.76;38613.59;5068356;28;20078;-74
2023/07/10 10:44:41;;;;;;;6.30;5.70;;;;;;;-145.63;37.78;38578.41;5063755;28;20040;-75
2023/07/10 10:47:13;;;;;;;7.05;5.20;;;;;;;-145.63;37.71;38547.09;5062317;28;20056;-74
2023/07/10 10:49:59;;;;;;;6.00;4.80;;;;;;;-145.63;37.28;38554.94;5042365;28;20344;-73
2023/07/10 10:52:31;;;;;;;5.75;5.13;;;;;;;-145.63;37.35;38678.13;5081040;28;20032;-74
2023/07/10 10:55:24;;;;;;;6.90;5.13;;;;;;;-145.63;37.56;38586.22;5069134;28;20087;-74
2023/07/10 10:58:15;;;;;;;5.78;5.20;;;;;;;-145.63;37.44;38554.94;5055042;28;20079;-75
2023/07/10 11:01:09;;;;;;;5.05;4.60;;;;;;;-145.63;37.11;38515.81;5061987;28;20032;-75
2023/07/10 11:03:49;;;;;;;5.88;5.05;;;;;;;-145.63;37.25;38500.19;5063653;28;20028;-75
2023/07/10 11:06:33;;;;;;;8.15;4.68;;;;;;;-145.63;36.89;38500.19;5062045;28;20090;-72
2023/07/10 11:09:19;;;;;;;5.68;5.15;;;;;;;-145.63;36.76;38490.41;5069980;28;20048;-74
2023/07/10 11:11:45;;;;;;;5.88;5.30;;;;;;;-145.63;36.61;38504.09;5078478;28;20102;-73
2023/07/10 11:14:12;;;;;;;5.40;4.90;;;;;;;-145.63;36.46;38509.97;5063343;28;20050;-74
2023/07/10 11:16:39;;;;;;;6.32;4.80;;;;;;;-145.63;36.44;38547.09;5062138;28;20407;-74
2023/07/10 11:19:08;;;;;;;7.45;5.22;;;;;;;-145.63;36.43;38519.72;5062288;28;20029;-74
2023/07/10 11:21:34;;;;;;;7.75;5.47;;;;;;;-145.63;36.47;38517.78;5075268;28;20055;-76
2023/07/10 11:24:15;;;;;;;6.43;5.65;;;;;;;-145.63;36.61;38498.22;5078491;28;20021;-76
2023/07/10 11:26:41;;;;;;;5.90;5.40;;;;;;;-145.63;36.82;38502.13;5076526;28;20035;-75